Hardaway, Alabama
Current Conditions -  °F | °C
As of 11:53 AM on Saturday 25 Oct 2014 (Local Time) from KTOI Reporting Station
Clear Clear  
Wind Chill: 74°   Ceiling: Unl
Heat Index: 74°   Visibility: 10mi
Dew Point: 50°   Wind: 13mph
Humidity: 43%   Direction: 340°NNW
Pressure: 30.09"   Gusts: NA
Location:  32.29°N, 85.85°W
Report Text: KTOI 251653Z AUTO 34011KT 10SM CLR 23/10 A3009 RMK AO2 SLP185 T02330100
Loading
Personal Weather Stations






























Interactive Weather Map
Tropical Storm Tracking
New forecast layout! Learn more

10-Day Weather Forecast

Advertisements
Track Severe Weather on mobile